Time;durP1;ratioP1;P1;durP2;ratioP2;P2;SDS_P1;SDS_P2;PMS_P1;PMS_P2;Temp;Humidity;BMP_temperature;BMP_pressure;BME280_temperature;BME280_humidity;BME280_pressure;Samples;Min_cycle;Max_cycle;Signal;HPM_P1;HPM_P2
2023/08/09 00:01:00;;;;;;;5.88;1.98;;;;;;;;;;5131201;27;20039;-74
2023/08/09 00:03:26;;;;;;;5.47;2.05;;;;;;;;;;5131056;27;20532;-74
2023/08/09 00:05:52;;;;;;;11.15;4.10;;;;;;;;;;5130750;27;20035;-73
2023/08/09 00:08:18;;;;;;;5.15;2.35;;;;;;;;;;5130996;27;20083;-73
2023/08/09 00:10:44;;;;;;;3.50;1.98;;;;;;;;;;5130959;27;20509;-74
2023/08/09 00:13:10;;;;;;;6.65;2.00;;;;;;;;;;5130594;27;20062;-76
2023/08/09 00:15:36;;;;;;;1.88;1.77;;;;;;;;;;5130831;27;20035;-73
2023/08/09 00:18:02;;;;;;;3.72;2.08;;;;;;;;;;5131078;27;20107;-72
2023/08/09 00:20:29;;;;;;;6.40;2.33;;;;;;;;;;5130958;27;20035;-72
2023/08/09 00:22:54;;;;;;;8.75;2.38;;;;;;;;;;5130829;27;20062;-74
2023/08/09 00:25:21;;;;;;;9.05;2.20;;;;;;;;;;5112346;27;20074;-73
2023/08/09 00:27:47;;;;;;;5.03;2.30;;;;;;;;;;5130475;27;20027;-74
2023/08/09 00:30:14;;;;;;;9.00;2.65;;;;;;;;;;5095414;27;20600;-73
2023/08/09 00:32:40;;;;;;;4.70;2.22;;;;;;;;;;5130453;27;20458;-73
2023/08/09 00:35:06;;;;;;;3.72;1.92;;;;;;;;;;5112597;28;20412;-72
2023/08/09 00:37:32;;;;;;;2.45;2.17;;;;;;;;;;5111860;27;20031;-74
2023/08/09 00:39:59;;;;;;;2.25;2.05;;;;;;;;;;5112574;27;20043;-74
2023/08/09 00:42:26;;;;;;;2.25;1.95;;;;;;;;;;5130687;27;20039;-74
2023/08/09 00:44:53;;;;;;;5.25;1.95;;;;;;;;;;5130609;27;20034;-74
2023/08/09 00:47:20;;;;;;;3.67;2.10;;;;;;;;;;5112357;27;20493;-74
2023/08/09 00:49:46;;;;;;;3.65;2.10;;;;;;;;;;5112406;28;20050;-74
2023/08/09 00:52:12;;;;;;;5.43;2.35;;;;;;;;;;5119326;27;20118;-73
2023/08/09 00:54:39;;;;;;;3.08;2.50;;;;;;;;;;5117393;27;20527;-74
2023/08/09 00:57:06;;;;;;;2.20;2.10;;;;;;;;;;5115834;27;20031;-75
2023/08/09 00:59:32;;;;;;;5.32;2.38;;;;;;;;;;5133890;27;20553;-74
2023/08/09 01:01:58;;;;;;;5.10;2.22;;;;;;;;;;5134061;27;20039;-73
2023/08/09 01:04:24;;;;;;;2.55;2.33;;;;;;;;;;5134063;27;20511;-74
2023/08/09 01:06:53;;;;;;;5.03;2.70;;;;;;;;;;5115175;27;20047;-73
2023/08/09 01:09:33;;;;;;;2.60;2.30;;;;;;;;;;5115714;27;20027;-73
2023/08/09 01:12:07;;;;;;;2.60;2.40;;;;;;;;;;5133839;27;20024;-73
2023/08/09 01:14:33;;;;;;;6.93;2.33;;;;;;;;;;5133363;27;20100;-72
2023/08/09 01:16:59;;;;;;;2.40;2.20;;;;;;;;;;5098297;27;20031;-72
2023/08/09 01:19:25;;;;;;;3.50;2.42;;;;;;;;;;5115307;27;20513;-73
2023/08/09 01:21:51;;;;;;;3.00;2.20;;;;;;;;;;5133336;27;20516;-73
2023/08/09 01:24:17;;;;;;;2.45;2.15;;;;;;;;;;5115380;27;20036;-73
2023/08/09 01:26:45;;;;;;;2.17;2.08;;;;;;;;;;5133087;27;20049;-73
2023/08/09 01:29:11;;;;;;;2.40;2.30;;;;;;;;;;5133491;27;20047;-74
2023/08/09 01:31:37;;;;;;;6.68;2.33;;;;;;;;;;5133055;27;20412;-73
2023/08/09 01:34:04;;;;;;;5.72;2.20;;;;;;;;;;5133516;27;20401;-74
2023/08/09 01:36:33;;;;;;;2.72;2.47;;;;;;;;;;5133318;27;20583;-72
2023/08/09 01:39:06;;;;;;;2.85;2.40;;;;;;;;;;5133456;27;20186;-72
2023/08/09 01:41:32;;;;;;;3.50;2.13;;;;;;;;;;5133289;27;20035;-72
2023/08/09 01:43:58;;;;;;;2.50;2.30;;;;;;;;;;5133266;27;20171;-74
2023/08/09 01:46:25;;;;;;;5.63;2.30;;;;;;;;;;5133109;27;20145;-74
2023/08/09 01:48:51;;;;;;;3.60;2.47;;;;;;;;;;5132836;27;20501;-74
2023/08/09 01:51:17;;;;;;;5.93;2.47;;;;;;;;;;5114782;27;20031;-75
2023/08/09 01:53:43;;;;;;;2.88;2.47;;;;;;;;;;5114365;27;20098;-74
2023/08/09 01:56:08;;;;;;;3.88;2.60;;;;;;;;;;5114638;27;20031;-71
2023/08/09 01:58:34;;;;;;;4.43;2.75;;;;;;;;;;5114516;27;20065;-74
2023/08/09 02:01:01;;;;;;;3.00;2.60;;;;;;;;;;5114143;27;20035;-74
2023/08/09 02:03:26;;;;;;;2.47;2.38;;;;;;;;;;5132748;27;20042;-73
2023/08/09 02:05:54;;;;;;;5.10;2.25;;;;;;;;;;5132518;27;20523;-73
2023/08/09 02:08:20;;;;;;;4.22;2.20;;;;;;;;;;5132685;27;20489;-73
2023/08/09 02:10:46;;;;;;;3.88;2.38;;;;;;;;;;5096992;27;20138;-72
2023/08/09 02:13:13;;;;;;;2.92;2.47;;;;;;;;;;5132345;27;20050;-73
2023/08/09 02:15:39;;;;;;;2.63;2.40;;;;;;;;;;5132522;27;20046;-73
2023/08/09 02:18:05;;;;;;;3.90;2.35;;;;;;;;;;5132778;27;20057;-73
2023/08/09 02:20:32;;;;;;;4.45;2.47;;;;;;;;;;5097045;27;20445;-72
2023/08/09 02:22:58;;;;;;;6.72;2.38;;;;;;;;;;5096850;27;20106;-74
2023/08/09 02:25:25;;;;;;;2.67;2.47;;;;;;;;;;5132375;27;20306;-73
2023/08/09 02:27:51;;;;;;;6.57;2.40;;;;;;;;;;5132019;27;20531;-72
2023/08/09 02:30:17;;;;;;;3.15;2.85;;;;;;;;;;5132352;27;20035;-73
2023/08/09 02:32:42;;;;;;;2.42;2.22;;;;;;;;;;5132036;27;20087;-73
2023/08/09 02:35:10;;;;;;;3.75;2.65;;;;;;;;;;5113932;27;20035;-74
2023/08/09 02:37:36;;;;;;;2.50;2.30;;;;;;;;;;5132044;27;20058;-74
2023/08/09 02:40:02;;;;;;;2.97;2.45;;;;;;;;;;5113920;27;20043;-74
2023/08/09 02:42:33;;;;;;;3.85;2.10;;;;;;;;;;5114482;27;20042;-73
2023/08/09 02:45:00;;;;;;;3.83;2.20;;;;;;;;;;5113982;27;20069;-74
2023/08/09 02:47:26;;;;;;;3.28;2.33;;;;;;;;;;5132598;27;20512;-73
2023/08/09 02:49:53;;;;;;;6.78;2.55;;;;;;;;;;5114481;27;20058;-75
2023/08/09 02:52:20;;;;;;;2.67;2.20;;;;;;;;;;5138937;27;20043;-74
2023/08/09 02:54:47;;;;;;;4.30;2.35;;;;;;;;;;5142242;27;20422;-74
2023/08/09 02:57:13;;;;;;;4.15;2.38;;;;;;;;;;5140147;27;20479;-74
2023/08/09 02:59:39;;;;;;;2.95;2.63;;;;;;;;;;5131606;27;20121;-74
2023/08/09 03:02:05;;;;;;;6.95;2.58;;;;;;;;;;5133105;27;20061;-74
2023/08/09 03:04:33;;;;;;;6.20;2.60;;;;;;;;;;5098713;27;20100;-73
2023/08/09 03:06:59;;;;;;;2.53;2.33;;;;;;;;;;5113362;27;20031;-72
2023/08/09 03:09:25;;;;;;;6.32;2.67;;;;;;;;;;5114513;27;20046;-74
2023/08/09 03:11:51;;;;;;;4.80;2.35;;;;;;;;;;5132517;27;20027;-72
2023/08/09 03:14:17;;;;;;;5.40;3.08;;;;;;;;;;5131977;27;20058;-74
2023/08/09 03:16:44;;;;;;;3.05;2.50;;;;;;;;;;5131228;27;20118;-72
2023/08/09 03:19:11;;;;;;;2.88;2.45;;;;;;;;;;5113185;27;20130;-72
2023/08/09 03:21:38;;;;;;;2.08;1.98;;;;;;;;;;5113153;27;20039;-73
2023/08/09 03:24:04;;;;;;;4.60;2.75;;;;;;;;;;5131154;27;20032;-74
2023/08/09 03:26:30;;;;;;;5.15;2.30;;;;;;;;;;5112950;27;20091;-73
2023/08/09 03:28:58;;;;;;;3.00;2.75;;;;;;;;;;5131152;27;20031;-74
2023/08/09 03:31:24;;;;;;;3.20;2.95;;;;;;;;;;5131419;27;20039;-73
2023/08/09 03:33:52;;;;;;;11.68;2.80;;;;;;;;;;5112660;27;20030;-73
2023/08/09 03:36:20;;;;;;;3.72;2.63;;;;;;;;;;5113050;27;20042;-75
2023/08/09 03:38:45;;;;;;;2.53;2.33;;;;;;;;;;5112545;28;20477;-74
2023/08/09 03:41:11;;;;;;;4.00;2.28;;;;;;;;;;5113107;27;20117;-72
2023/08/09 03:43:37;;;;;;;5.40;2.38;;;;;;;;;;5112813;28;20031;-73
2023/08/09 03:46:04;;;;;;;4.80;2.55;;;;;;;;;;5096612;28;20079;-73
2023/08/09 03:48:30;;;;;;;3.45;2.25;;;;;;;;;;5114337;28;20023;-72
2023/08/09 03:50:57;;;;;;;2.67;2.47;;;;;;;;;;5133732;27;20401;-75
2023/08/09 03:53:23;;;;;;;3.17;2.50;;;;;;;;;;5114193;27;20031;-73
2023/08/09 03:55:49;;;;;;;2.55;2.40;;;;;;;;;;5112469;27;20039;-74
2023/08/09 03:58:15;;;;;;;5.72;2.40;;;;;;;;;;5131113;27;20037;-74
2023/08/09 04:00:42;;;;;;;3.03;2.83;;;;;;;;;;5131026;27;20043;-75
2023/08/09 04:03:08;;;;;;;5.03;2.40;;;;;;;;;;5112743;27;20027;-74
2023/08/09 04:05:35;;;;;;;2.60;2.45;;;;;;;;;;5130858;27;20519;-74
2023/08/09 04:08:03;;;;;;;3.03;2.80;;;;;;;;;;5113182;28;20031;-74
2023/08/09 04:10:29;;;;;;;2.70;2.50;;;;;;;;;;5131174;27;20041;-73
2023/08/09 04:12:55;;;;;;;6.47;2.75;;;;;;;;;;5108869;28;20047;-75
2023/08/09 04:15:21;;;;;;;4.15;3.10;;;;;;;;;;5109113;28;20031;-74
2023/08/09 04:17:48;;;;;;;2.50;2.30;;;;;;;;;;5110178;28;20169;-74
2023/08/09 04:20:16;;;;;;;4.60;2.90;;;;;;;;;;5109290;28;20047;-75
2023/08/09 04:22:42;;;;;;;2.95;2.75;;;;;;;;;;5110293;28;20521;-74
2023/08/09 04:25:10;;;;;;;3.97;2.50;;;;;;;;;;5112212;28;20047;-75
2023/08/09 04:27:38;;;;;;;2.40;2.30;;;;;;;;;;5114077;28;20035;-75
2023/08/09 04:30:09;;;;;;;3.80;2.60;;;;;;;;;;5113892;28;20036;-74
2023/08/09 04:32:39;;;;;;;6.93;2.72;;;;;;;;;;5112690;28;20084;-74
2023/08/09 04:35:05;;;;;;;;;;;;;;;;;;5114340;28;20505;-74
2023/08/09 04:37:31;;;;;;;5.93;2.58;;;;;;;;;;5112862;28;19954;-74
2023/08/09 04:39:57;;;;;;;8.20;2.90;;;;;;;;;;5113742;28;20032;-73
2023/08/09 04:42:23;;;;;;;4.45;2.80;;;;;;;;;;5114329;28;20027;-74
2023/08/09 04:44:50;;;;;;;5.05;2.83;;;;;;;;;;5114823;28;20035;-74
2023/08/09 04:47:15;;;;;;;4.22;3.15;;;;;;;;;;5096298;28;20513;-75
2023/08/09 04:49:42;;;;;;;4.10;3.05;;;;;;;;;;5113378;28;20032;-75
2023/08/09 04:52:09;;;;;;;3.15;2.85;;;;;;;;;;5114508;28;20172;-74
2023/08/09 04:54:35;;;;;;;9.40;3.03;;;;;;;;;;5113941;28;20531;-74
2023/08/09 04:57:01;;;;;;;4.45;3.30;;;;;;;;;;5113515;28;20036;-74
2023/08/09 04:59:27;;;;;;;5.25;3.10;;;;;;;;;;5113600;28;20122;-75
2023/08/09 05:01:53;;;;;;;5.80;3.10;;;;;;;;;;5111917;28;20031;-74
2023/08/09 05:04:19;;;;;;;3.90;2.90;;;;;;;;;;5113495;28;20036;-73
2023/08/09 05:06:45;;;;;;;3.15;2.95;;;;;;;;;;5113264;28;20058;-73
2023/08/09 05:09:11;;;;;;;5.28;3.28;;;;;;;;;;5112970;28;20528;-75
2023/08/09 05:11:37;;;;;;;3.63;3.10;;;;;;;;;;5113254;28;20046;-74
2023/08/09 05:14:03;;;;;;;5.32;3.30;;;;;;;;;;5111625;28;20043;-74
2023/08/09 05:16:29;;;;;;;6.30;3.25;;;;;;;;;;5113146;28;20040;-75
2023/08/09 05:18:55;;;;;;;3.28;3.08;;;;;;;;;;5112858;28;20167;-73
2023/08/09 05:21:21;;;;;;;6.22;3.20;;;;;;;;;;5113157;28;20067;-73
2023/08/09 05:23:47;;;;;;;3.45;3.15;;;;;;;;;;5112996;28;20132;-75
2023/08/09 05:26:14;;;;;;;5.68;3.35;;;;;;;;;;5113121;28;20048;-75
2023/08/09 05:28:40;;;;;;;10.13;3.60;;;;;;;;;;5113627;28;20114;-74
2023/08/09 05:31:06;;;;;;;7.22;3.72;;;;;;;;;;5112911;28;20181;-73
2023/08/09 05:33:32;;;;;;;4.10;3.08;;;;;;;;;;5113114;28;20462;-73
2023/08/09 05:35:59;;;;;;;5.25;3.25;;;;;;;;;;5111802;28;20034;-75
2023/08/09 05:38:25;;;;;;;7.15;3.35;;;;;;;;;;5112884;28;20035;-74
2023/08/09 05:40:52;;;;;;;3.35;3.00;;;;;;;;;;5112504;28;20118;-75
2023/08/09 05:43:18;;;;;;;6.65;3.10;;;;;;;;;;5111440;28;20127;-73
2023/08/09 05:45:44;;;;;;;4.50;3.20;;;;;;;;;;5112724;28;20068;-75
2023/08/09 05:48:11;;;;;;;4.13;3.72;;;;;;;;;;5112622;28;20043;-73
2023/08/09 05:50:37;;;;;;;3.22;3.03;;;;;;;;;;5112801;28;20036;-74
2023/08/09 05:53:03;;;;;;;5.32;3.15;;;;;;;;;;5112852;28;20123;-75
2023/08/09 05:55:29;;;;;;;7.45;3.60;;;;;;;;;;5113776;28;20044;-74
2023/08/09 05:57:55;;;;;;;6.50;4.32;;;;;;;;;;5113964;28;20035;-75
2023/08/09 06:00:23;;;;;;;7.10;3.88;;;;;;;;;;5112982;28;20042;-75
2023/08/09 06:02:49;;;;;;;10.57;4.03;;;;;;;;;;5113921;27;20114;-75
2023/08/09 06:05:23;;;;;;;4.78;3.45;;;;;;;;;;5119287;28;20059;-75
2023/08/09 06:07:49;;;;;;;10.27;3.92;;;;;;;;;;5122555;28;20031;-74
2023/08/09 06:10:15;;;;;;;5.97;3.85;;;;;;;;;;5118647;28;20062;-74
2023/08/09 06:12:41;;;;;;;9.48;4.00;;;;;;;;;;5115958;27;20047;-75
2023/08/09 06:15:07;;;;;;;4.28;3.88;;;;;;;;;;5132733;27;20043;-74
2023/08/09 06:17:34;;;;;;;9.90;3.78;;;;;;;;;;5132476;27;20038;-74
2023/08/09 06:20:00;;;;;;;5.78;3.92;;;;;;;;;;5132307;27;20043;-74
2023/08/09 06:22:26;;;;;;;5.68;3.80;;;;;;;;;;5132475;27;20035;-75
2023/08/09 06:24:52;;;;;;;5.28;3.60;;;;;;;;;;5113657;27;20038;-75
2023/08/09 06:27:18;;;;;;;6.50;3.83;;;;;;;;;;5132487;27;20047;-74
2023/08/09 06:29:44;;;;;;;7.35;3.55;;;;;;;;;;5132444;27;20039;-74
2023/08/09 06:32:10;;;;;;;9.00;3.72;;;;;;;;;;5132530;27;20035;-74
2023/08/09 06:34:36;;;;;;;12.07;4.15;;;;;;;;;;5113916;27;20043;-76
2023/08/09 06:37:02;;;;;;;8.35;3.90;;;;;;;;;;5113607;27;20095;-73
2023/08/09 06:39:28;;;;;;;7.45;3.83;;;;;;;;;;5132282;27;20035;-73
2023/08/09 06:41:54;;;;;;;9.23;4.00;;;;;;;;;;5113412;27;20031;-74
2023/08/09 06:44:21;;;;;;;6.10;3.80;;;;;;;;;;5113805;27;20463;-75
2023/08/09 06:46:47;;;;;;;5.43;4.30;;;;;;;;;;5132737;27;20043;-75
2023/08/09 06:49:13;;;;;;;11.85;4.43;;;;;;;;;;5133214;27;20027;-75
2023/08/09 06:51:41;;;;;;;6.30;3.67;;;;;;;;;;5131872;27;20122;-73
2023/08/09 06:54:07;;;;;;;6.03;3.70;;;;;;;;;;5131765;27;20027;-73
2023/08/09 06:56:35;;;;;;;11.18;4.47;;;;;;;;;;5131796;27;20516;-74
2023/08/09 06:59:01;;;;;;;9.80;4.55;;;;;;;;;;5131619;27;20027;-74
2023/08/09 07:01:27;;;;;;;12.93;4.25;;;;;;;;;;5131802;27;20031;-75
2023/08/09 07:03:53;;;;;;;8.95;4.00;;;;;;;;;;5131549;27;20118;-75
2023/08/09 07:06:19;;;;;;;9.23;4.10;;;;;;;;;;5113217;27;20475;-75
2023/08/09 07:08:45;;;;;;;12.63;4.20;;;;;;;;;;5113088;27;20027;-74
2023/08/09 07:11:11;;;;;;;10.30;4.05;;;;;;;;;;5131505;27;20035;-75
2023/08/09 07:13:37;;;;;;;5.47;3.28;;;;;;;;;;5131196;27;20043;-75
2023/08/09 07:16:03;;;;;;;4.57;3.95;;;;;;;;;;5131420;27;20038;-74
2023/08/09 07:18:29;;;;;;;5.35;3.70;;;;;;;;;;5131482;27;20377;-73
2023/08/09 07:20:57;;;;;;;5.40;3.63;;;;;;;;;;5131266;27;20042;-75
2023/08/09 07:23:23;;;;;;;7.03;4.13;;;;;;;;;;5131393;27;20042;-74
2023/08/09 07:25:49;;;;;;;5.75;4.78;;;;;;;;;;5131306;27;20039;-74
2023/08/09 07:28:15;;;;;;;6.13;4.60;;;;;;;;;;5131004;27;20122;-75
2023/08/09 07:30:41;;;;;;;7.72;5.10;;;;;;;;;;5131339;27;20468;-75
2023/08/09 07:33:07;;;;;;;6.30;4.63;;;;;;;;;;5131125;27;20050;-73
2023/08/09 07:35:33;;;;;;;5.35;4.93;;;;;;;;;;5131395;27;20118;-74
2023/08/09 07:38:01;;;;;;;9.93;5.68;;;;;;;;;;5130972;27;20049;-74
2023/08/09 07:40:27;;;;;;;6.07;5.57;;;;;;;;;;5131523;27;20405;-75
2023/08/09 07:42:55;;;;;;;11.88;5.88;;;;;;;;;;5131056;27;20046;-75
2023/08/09 07:45:21;;;;;;;7.30;5.60;;;;;;;;;;5131014;27;20039;-75
2023/08/09 07:47:47;;;;;;;6.28;5.50;;;;;;;;;;5131055;27;20187;-75
2023/08/09 07:50:13;;;;;;;7.75;5.97;;;;;;;;;;5131229;27;20533;-75
2023/08/09 07:52:39;;;;;;;6.00;5.57;;;;;;;;;;5131105;27;20046;-74
2023/08/09 07:55:06;;;;;;;8.20;5.50;;;;;;;;;;5112716;28;20035;-75
2023/08/09 07:57:33;;;;;;;7.65;5.60;;;;;;;;;;5130998;27;20031;-74
2023/08/09 07:59:59;;;;;;;9.05;5.85;;;;;;;;;;5132699;27;20548;-74
2023/08/09 08:02:25;;;;;;;6.53;5.93;;;;;;;;;;5135429;27;20171;-75
2023/08/09 08:04:51;;;;;;;10.93;5.72;;;;;;;;;;5134999;27;20114;-74
2023/08/09 08:07:17;;;;;;;8.63;5.97;;;;;;;;;;5116633;27;20050;-75
2023/08/09 08:09:44;;;;;;;7.35;5.97;;;;;;;;;;5134969;27;20521;-74
2023/08/09 08:12:11;;;;;;;10.70;6.03;;;;;;;;;;5134817;27;20053;-74
2023/08/09 08:14:38;;;;;;;9.75;6.55;;;;;;;;;;5134746;27;20085;-74
2023/08/09 08:17:04;;;;;;;8.13;6.40;;;;;;;;;;5134982;27;20112;-76
2023/08/09 08:19:30;;;;;;;12.38;6.80;;;;;;;;;;5134813;27;20137;-75
2023/08/09 08:21:56;;;;;;;9.15;7.45;;;;;;;;;;5134825;27;20561;-74
2023/08/09 08:24:23;;;;;;;10.50;7.85;;;;;;;;;;5134447;27;20039;-75
2023/08/09 08:26:53;;;;;;;10.00;7.50;;;;;;;;;;5116469;27;20462;-75
2023/08/09 08:29:19;;;;;;;14.52;7.55;;;;;;;;;;5134392;27;20031;-74
2023/08/09 08:31:46;;;;;;;12.40;7.57;;;;;;;;;;5134471;27;20057;-75
2023/08/09 08:34:12;;;;;;;8.15;7.35;;;;;;;;;;5115858;27;20035;-73
2023/08/09 08:36:38;;;;;;;9.23;7.32;;;;;;;;;;5134789;27;20578;-75
2023/08/09 08:39:09;;;;;;;12.27;7.13;;;;;;;;;;5134141;27;20080;-74
2023/08/09 08:41:35;;;;;;;10.60;7.80;;;;;;;;;;5134395;27;20031;-74
2023/08/09 08:44:01;;;;;;;9.75;7.22;;;;;;;;;;5134094;27;20087;-75
2023/08/09 08:46:27;;;;;;;10.15;7.70;;;;;;;;;;5134454;27;20042;-74
2023/08/09 08:48:53;;;;;;;17.48;9.35;;;;;;;;;;5134123;27;20030;-74
2023/08/09 08:51:19;;;;;;;11.75;8.38;;;;;;;;;;5115899;27;20035;-75
2023/08/09 08:53:45;;;;;;;10.35;6.53;;;;;;;;;;5134318;27;20027;-75
2023/08/09 08:56:11;;;;;;;6.72;6.10;;;;;;;;;;5134003;27;20186;-74
2023/08/09 08:58:37;;;;;;;8.18;6.22;;;;;;;;;;5115980;27;20540;-74
2023/08/09 09:01:04;;;;;;;12.50;6.65;;;;;;;;;;5134092;27;20082;-74
2023/08/09 09:03:29;;;;;;;6.75;6.00;;;;;;;;;;5134721;27;20493;-75
2023/08/09 09:05:56;;;;;;;8.38;5.60;;;;;;;;;;5134681;27;20061;-76
2023/08/09 09:08:23;;;;;;;9.65;6.90;;;;;;;;;;5099415;27;20583;-75
2023/08/09 09:10:53;;;;;;;11.57;7.30;;;;;;;;;;5133966;27;20031;-75
2023/08/09 09:13:26;;;;;;;16.38;7.28;;;;;;;;;;5117011;27;20054;-75
2023/08/09 09:15:54;;;;;;;11.73;6.35;;;;;;;;;;5140922;27;20058;-75
2023/08/09 09:18:21;;;;;;;10.35;6.75;;;;;;;;;;5143218;27;20043;-77
2023/08/09 09:20:46;;;;;;;20.02;6.07;;;;;;;;;;5118106;27;20035;-75
2023/08/09 09:23:27;;;;;;;11.63;7.00;;;;;;;;;;5133436;27;20039;-76
2023/08/09 09:26:07;;;;;;;11.40;6.25;;;;;;;;;;5133489;27;20046;-76
2023/08/09 09:28:39;;;;;;;8.38;4.63;;;;;;;;;;5115379;27;20450;-76
2023/08/09 09:31:06;;;;;;;8.93;5.55;;;;;;;;;;5133375;27;20031;-75
2023/08/09 09:33:35;;;;;;;8.27;6.13;;;;;;;;;;5133427;27;20027;-74
2023/08/09 09:36:02;;;;;;;5.00;4.50;;;;;;;;;;5133339;27;20450;-73
2023/08/09 09:38:28;;;;;;;5.50;5.00;;;;;;;;;;5132968;27;20107;-74
2023/08/09 09:40:53;;;;;;;8.45;5.20;;;;;;;;;;5133410;27;20034;-76
2023/08/09 09:43:19;;;;;;;6.65;4.68;;;;;;;;;;5133962;27;20031;-74
2023/08/09 09:45:45;;;;;;;6.82;4.75;;;;;;;;;;5134501;27;20518;-74
2023/08/09 09:48:18;;;;;;;7.95;4.75;;;;;;;;;;5133015;27;20062;-75
2023/08/09 09:50:44;;;;;;;10.13;5.07;;;;;;;;;;5132879;27;20027;-76
2023/08/09 09:53:11;;;;;;;10.25;5.18;;;;;;;;;;5132769;27;20035;-75
2023/08/09 09:55:37;;;;;;;10.45;5.47;;;;;;;;;;5132808;27;20453;-75
2023/08/09 09:58:03;;;;;;;7.10;5.15;;;;;;;;;;5133012;27;20031;-76
2023/08/09 10:00:31;;;;;;;9.52;4.80;;;;;;;;;;5132553;27;20027;-75
2023/08/09 10:03:00;;;;;;;4.47;4.07;;;;;;;;;;5132697;27;20031;-77
2023/08/09 10:05:35;;;;;;;5.30;4.50;;;;;;;;;;5096866;27;20050;-76
2023/08/09 10:08:06;;;;;;;6.40;4.70;;;;;;;;;;5132776;27;20038;-75
2023/08/09 10:10:32;;;;;;;6.45;4.20;;;;;;;;;;5114860;27;20397;-75
2023/08/09 10:12:58;;;;;;;16.25;4.63;;;;;;;;;;5132596;27;20053;-75
2023/08/09 10:15:28;;;;;;;8.65;4.00;;;;;;;;;;5132439;27;20126;-75
2023/08/09 10:17:54;;;;;;;5.72;3.78;;;;;;;;;;5114247;27;20661;-74
2023/08/09 10:20:22;;;;;;;8.45;4.30;;;;;;;;;;5097374;27;20027;-76
2023/08/09 10:22:48;;;;;;;5.63;3.88;;;;;;;;;;5096923;27;20023;-75
2023/08/09 10:25:15;;;;;;;12.00;3.85;;;;;;;;;;5132003;27;20031;-74
2023/08/09 10:28:00;;;;;;;10.07;4.35;;;;;;;;;;5132346;27;20096;-75
2023/08/09 10:30:26;;;;;;;10.15;3.50;;;;;;;;;;5132164;27;20493;-76
2023/08/09 10:32:54;;;;;;;10.60;3.60;;;;;;;;;;5132268;27;20035;-76
2023/08/09 10:35:20;;;;;;;6.40;3.45;;;;;;;;;;5132048;27;20500;-74
2023/08/09 10:37:47;;;;;;;11.48;3.33;;;;;;;;;;5132630;27;20035;-77
2023/08/09 10:40:15;;;;;;;11.40;3.35;;;;;;;;;;5133807;27;20041;-74
2023/08/09 10:42:45;;;;;;;3.30;3.00;;;;;;;;;;5133822;27;20042;-75
2023/08/09 10:45:12;;;;;;;3.78;3.38;;;;;;;;;;5133027;27;20114;-75
2023/08/09 10:47:39;;;;;;;7.40;3.40;;;;;;;;;;5133828;27;20118;-75
2023/08/09 10:50:05;;;;;;;3.33;3.03;;;;;;;;;;5133823;27;20039;-76
2023/08/09 10:52:31;;;;;;;5.20;3.05;;;;;;;;;;5114608;27;20031;-76
2023/08/09 10:55:09;;;;;;;3.60;3.22;;;;;;;;;;5132047;27;20171;-74
2023/08/09 10:57:41;;;;;;;7.15;3.30;;;;;;;;;;5132063;27;20094;-76
2023/08/09 11:00:12;;;;;;;3.88;3.35;;;;;;;;;;5113561;27;20031;-74
2023/08/09 11:02:47;;;;;;;6.75;3.40;;;;;;;;;;5131644;27;20035;-77
2023/08/09 11:05:13;;;;;;;9.20;3.50;;;;;;;;;;5131187;27;20043;-74
2023/08/09 11:07:43;;;;;;;8.93;3.65;;;;;;;;;;5131595;27;20038;-74
2023/08/09 11:10:09;;;;;;;6.90;3.40;;;;;;;;;;5131598;27;20027;-75
2023/08/09 11:12:35;;;;;;;5.28;3.63;;;;;;;;;;5131540;27;20131;-75
2023/08/09 11:15:05;;;;;;;5.55;3.17;;;;;;;;;;5131198;27;20027;-75
2023/08/09 11:17:32;;;;;;;3.20;2.92;;;;;;;;;;5112838;27;20104;-74
2023/08/09 11:19:57;;;;;;;4.50;3.40;;;;;;;;;;5131602;27;20039;-75
2023/08/09 11:22:24;;;;;;;8.45;3.22;;;;;;;;;;5131171;27;20527;-74
2023/08/09 11:24:49;;;;;;;5.72;3.13;;;;;;;;;;5131298;27;20110;-74
2023/08/09 11:27:16;;;;;;;6.07;3.38;;;;;;;;;;5112786;27;20043;-74
2023/08/09 11:29:42;;;;;;;4.93;3.63;;;;;;;;;;5112681;27;20023;-74
2023/08/09 11:32:08;;;;;;;3.40;3.10;;;;;;;;;;5131568;27;20042;-75
2023/08/09 11:34:34;;;;;;;6.05;3.35;;;;;;;;;;5130583;27;20413;-76
2023/08/09 11:36:59;;;;;;;8.40;3.63;;;;;;;;;;5131119;27;20042;-75
2023/08/09 11:39:25;;;;;;;4.03;3.38;;;;;;;;;;5095726;27;20039;-73
2023/08/09 11:41:55;;;;;;;3.10;2.53;;;;;;;;;;5112959;27;20550;-74
2023/08/09 11:44:21;;;;;;;2.78;2.60;;;;;;;;;;5130904;27;20038;-75
2023/08/09 11:46:47;;;;;;;4.22;2.67;;;;;;;;;;5131028;27;20043;-74
2023/08/09 11:49:13;;;;;;;4.35;2.63;;;;;;;;;;5130841;27;20516;-76
2023/08/09 11:51:39;;;;;;;5.13;2.70;;;;;;;;;;5132266;27;20046;-76
2023/08/09 11:54:08;;;;;;;4.85;2.70;;;;;;;;;;5114880;27;20027;-75
2023/08/09 11:56:35;;;;;;;3.40;2.50;;;;;;;;;;5132812;27;20038;-75
2023/08/09 11:59:02;;;;;;;3.00;2.80;;;;;;;;;;5114647;27;20284;-75
2023/08/09 12:01:33;;;;;;;2.65;2.45;;;;;;;;;;5114234;28;20038;-73
2023/08/09 12:03:59;;;;;;;3.35;2.50;;;;;;;;;;5132480;27;20043;-76
2023/08/09 12:06:35;;;;;;;4.22;3.00;;;;;;;;;;5131507;27;20506;-75
2023/08/09 12:09:20;;;;;;;3.13;2.80;;;;;;;;;;5130935;27;20027;-76
2023/08/09 12:11:47;;;;;;;6.45;2.50;;;;;;;;;;5131134;27;20043;-75
2023/08/09 12:14:13;;;;;;;2.55;2.28;;;;;;;;;;5130768;27;20050;-74
2023/08/09 12:16:39;;;;;;;3.85;2.78;;;;;;;;;;5131393;27;20377;-75
2023/08/09 12:19:06;;;;;;;11.73;2.83;;;;;;;;;;5096091;27;20221;-76
2023/08/09 12:21:32;;;;;;;2.83;2.63;;;;;;;;;;5096023;27;20027;-75
2023/08/09 12:23:58;;;;;;;3.55;3.13;;;;;;;;;;5132350;27;20074;-74
2023/08/09 12:26:28;;;;;;;5.40;3.03;;;;;;;;;;5138483;27;20054;-75
2023/08/09 12:28:54;;;;;;;3.33;2.92;;;;;;;;;;5140045;27;20027;-76
2023/08/09 12:31:20;;;;;;;4.00;3.65;;;;;;;;;;5113818;27;20039;-76
2023/08/09 12:33:46;;;;;;;3.30;3.10;;;;;;;;;;5130754;27;20044;-74
2023/08/09 12:36:12;;;;;;;7.13;2.85;;;;;;;;;;5130801;27;20060;-74
2023/08/09 12:38:38;;;;;;;4.20;3.05;;;;;;;;;;5130461;27;20106;-75
2023/08/09 12:41:04;;;;;;;9.82;3.55;;;;;;;;;;5114631;28;20062;-75
2023/08/09 12:43:30;;;;;;;3.47;3.17;;;;;;;;;;5131651;27;20027;-74
2023/08/09 12:45:59;;;;;;;6.78;3.38;;;;;;;;;;5132560;27;20609;-75
2023/08/09 12:48:25;;;;;;;7.05;3.15;;;;;;;;;;5115987;27;20633;-74
2023/08/09 12:50:51;;;;;;;7.50;3.30;;;;;;;;;;5134366;27;20448;-73
2023/08/09 12:53:17;;;;;;;8.02;3.35;;;;;;;;;;5134204;27;20047;-74
2023/08/09 12:55:43;;;;;;;9.95;3.65;;;;;;;;;;5134240;27;20396;-75
2023/08/09 12:58:09;;;;;;;4.60;3.45;;;;;;;;;;5134394;27;20121;-75
2023/08/09 13:00:36;;;;;;;6.43;3.35;;;;;;;;;;5135370;27;21008;-75
2023/08/09 13:03:02;;;;;;;5.40;3.55;;;;;;;;;;5116130;27;20042;-75
2023/08/09 13:05:28;;;;;;;6.15;3.83;;;;;;;;;;5133833;27;20031;-75
2023/08/09 13:07:54;;;;;;;3.45;3.08;;;;;;;;;;5134225;27;20043;-75
2023/08/09 13:10:21;;;;;;;5.65;3.20;;;;;;;;;;5135036;27;20027;-75
2023/08/09 13:12:47;;;;;;;3.45;3.05;;;;;;;;;;5133983;27;20043;-75
2023/08/09 13:15:13;;;;;;;3.58;3.38;;;;;;;;;;5133652;27;20517;-75
2023/08/09 13:17:39;;;;;;;3.10;2.90;;;;;;;;;;5115440;27;20031;-74
2023/08/09 13:20:06;;;;;;;5.60;3.63;;;;;;;;;;5133843;27;20501;-74
2023/08/09 13:22:32;;;;;;;3.35;3.15;;;;;;;;;;5133787;27;20535;-75
2023/08/09 13:24:58;;;;;;;4.03;3.25;;;;;;;;;;5133731;27;20031;-75
2023/08/09 13:27:24;;;;;;;3.70;3.50;;;;;;;;;;5133483;27;20041;-75
2023/08/09 13:29:50;;;;;;;5.97;3.80;;;;;;;;;;5115227;27;20038;-75
2023/08/09 13:32:17;;;;;;;3.58;3.35;;;;;;;;;;5115374;27;20043;-75
2023/08/09 13:34:45;;;;;;;3.85;3.38;;;;;;;;;;5133471;27;20031;-74
2023/08/09 13:37:11;;;;;;;3.55;3.25;;;;;;;;;;5133539;27;20043;-75
2023/08/09 13:39:37;;;;;;;4.00;3.70;;;;;;;;;;5114856;27;20035;-74
2023/08/09 13:42:03;;;;;;;4.07;3.78;;;;;;;;;;5114857;27;20091;-73
2023/08/09 13:44:29;;;;;;;11.13;3.38;;;;;;;;;;5133068;27;20118;-75
2023/08/09 13:46:55;;;;;;;4.70;3.58;;;;;;;;;;5133716;27;20046;-74
2023/08/09 13:49:21;;;;;;;7.95;3.75;;;;;;;;;;5132946;27;20035;-76
2023/08/09 13:51:47;;;;;;;8.60;3.83;;;;;;;;;;5133420;27;20029;-76
2023/08/09 13:54:13;;;;;;;7.13;3.88;;;;;;;;;;5114311;27;20059;-74
2023/08/09 13:56:39;;;;;;;3.83;3.53;;;;;;;;;;5132424;27;20218;-74
2023/08/09 13:59:05;;;;;;;10.02;5.72;;;;;;;;;;5132886;27;20576;-75
2023/08/09 14:01:33;;;;;;;11.10;5.50;;;;;;;;;;5133069;27;20121;-76
2023/08/09 14:03:59;;;;;;;6.53;4.70;;;;;;;;;;5114319;27;20035;-75
2023/08/09 14:06:26;;;;;;;10.77;5.53;;;;;;;;;;5132699;27;20134;-75
2023/08/09 14:08:52;;;;;;;7.88;5.85;;;;;;;;;;5114350;27;20088;-74
2023/08/09 14:11:18;;;;;;;8.10;5.00;;;;;;;;;;5132910;27;20034;-75
2023/08/09 14:13:44;;;;;;;5.45;3.88;;;;;;;;;;5132149;27;20047;-75
2023/08/09 14:16:10;;;;;;;4.30;3.50;;;;;;;;;;5132929;27;20045;-76
2023/08/09 14:18:36;;;;;;;3.70;3.40;;;;;;;;;;5133000;27;20039;-74
2023/08/09 14:21:02;;;;;;;3.42;3.10;;;;;;;;;;5114650;27;20042;-74
2023/08/09 14:23:28;;;;;;;9.13;3.10;;;;;;;;;;5132604;27;20029;-74
2023/08/09 14:25:54;;;;;;;5.22;3.40;;;;;;;;;;5132216;27;20659;-72
2023/08/09 14:28:21;;;;;;;8.88;3.90;;;;;;;;;;5132582;27;20031;-75
2023/08/09 14:30:48;;;;;;;8.07;3.55;;;;;;;;;;5132206;27;20062;-75
2023/08/09 14:33:14;;;;;;;7.28;3.97;;;;;;;;;;5132237;27;20027;-75
2023/08/09 14:35:40;;;;;;;5.93;4.13;;;;;;;;;;5133305;27;20031;-75
2023/08/09 14:38:08;;;;;;;6.13;4.63;;;;;;;;;;5132456;27;20037;-74